createdAt,value
2022-09-04T00:00:03.609Z,25.26
2022-09-04T00:00:38.414Z,25.40
2022-09-04T00:01:09.638Z,25.40
2022-09-04T00:01:45.098Z,25.37
2022-09-04T00:02:25.435Z,25.34
2022-09-04T00:03:07.689Z,25.34
2022-09-04T00:03:39.589Z,25.40
2022-09-04T00:04:15.476Z,25.44
2022-09-04T00:04:46.867Z,25.28
2022-09-04T00:05:17.236Z,25.24
2022-09-04T00:05:49.336Z,25.26
2022-09-04T00:06:19.381Z,25.21
2022-09-04T00:06:49.671Z,25.26
2022-09-04T00:07:19.052Z,25.27
2022-09-04T00:07:57.706Z,25.33
2022-09-04T00:08:52.576Z,25.27
2022-09-04T00:09:23.831Z,25.30
2022-09-04T00:09:53.853Z,25.34
2022-09-04T00:10:22.346Z,25.33
2022-09-04T00:10:53.724Z,25.35
2022-09-04T00:11:29.478Z,25.32
2022-09-04T00:11:59.517Z,25.29
2022-09-04T00:12:26.950Z,25.28
2022-09-04T00:12:54.755Z,25.20
2022-09-04T00:13:22.031Z,25.23
2022-09-04T00:13:51.637Z,25.22
2022-09-04T00:14:17.722Z,25.22
2022-09-04T00:14:45.860Z,25.21
2022-09-04T00:15:15.470Z,25.15
2022-09-04T00:15:43.739Z,25.18
2022-09-04T00:16:10.222Z,25.23
2022-09-04T00:16:43.105Z,25.27
2022-09-04T00:17:11.063Z,25.29
2022-09-04T00:17:40.308Z,25.35
2022-09-04T00:18:08.321Z,25.36
2022-09-04T00:18:37.369Z,25.37
2022-09-04T00:19:08.450Z,25.38
2022-09-04T00:19:36.652Z,25.12
2022-09-04T00:20:02.683Z,25.22
2022-09-04T00:20:34.121Z,25.17
2022-09-04T00:21:01.586Z,25.17
2022-09-04T00:21:34.445Z,25.19
2022-09-04T00:21:58.729Z,25.26
2022-09-04T00:22:33.593Z,25.27
2022-09-04T00:23:01.980Z,25.32
2022-09-04T00:23:31.621Z,25.35
2022-09-04T00:23:58.038Z,25.30
2022-09-04T00:24:24.714Z,25.34
2022-09-04T00:24:53.879Z,25.35
2022-09-04T00:25:25.385Z,25.36
2022-09-04T00:25:57.758Z,25.33
2022-09-04T00:26:30.708Z,25.34
2022-09-04T00:26:59.381Z,25.36
2022-09-04T00:27:24.884Z,25.34
2022-09-04T00:27:52.184Z,25.33
2022-09-04T00:28:26.751Z,25.36
2022-09-04T00:28:50.982Z,25.34
2022-09-04T00:29:20.212Z,25.27
2022-09-04T00:29:49.008Z,25.28
2022-09-04T00:30:15.280Z,25.36
2022-09-04T00:30:46.260Z,25.36
2022-09-04T00:31:25.819Z,25.38
2022-09-04T00:31:53.149Z,25.37
2022-09-04T00:32:24.808Z,25.39
2022-09-04T00:32:55.345Z,25.35
2022-09-04T00:33:23.686Z,25.34
2022-09-04T00:33:54.216Z,25.27
2022-09-04T00:34:25.762Z,25.25
2022-09-04T00:35:05.912Z,25.33
2022-09-04T00:35:31.284Z,25.36
2022-09-04T00:35:58.658Z,25.37
2022-09-04T00:36:25.338Z,25.34
2022-09-04T00:36:51.559Z,25.27
2022-09-04T00:37:17.316Z,25.29
2022-09-04T00:37:44.251Z,25.23
2022-09-04T00:38:11.801Z,25.22
2022-09-04T00:39:26.584Z,25.15
2022-09-04T00:39:54.653Z,25.14
2022-09-04T00:40:25.263Z,25.07
2022-09-04T00:40:57.722Z,25.13
2022-09-04T00:41:29.379Z,24.94
2022-09-04T00:42:05.768Z,24.98
2022-09-04T00:42:43.396Z,24.91
2022-09-04T00:43:27.948Z,25.03
2022-09-04T00:44:07.796Z,24.99
2022-09-04T00:44:45.783Z,25.12
2022-09-04T00:45:16.944Z,25.11
2022-09-04T00:45:58.388Z,25.06
2022-09-04T00:46:59.118Z,25.01
2022-09-04T00:47:49.353Z,25.00
2022-09-04T00:48:28.359Z,25.09
2022-09-04T00:49:20.244Z,25.08
2022-09-04T00:50:19.848Z,25.06
2022-09-04T00:51:06.825Z,25.08
2022-09-04T00:51:38.356Z,24.96
2022-09-04T00:52:12.804Z,24.92
2022-09-04T00:52:58.463Z,24.98
2022-09-04T00:53:41.755Z,24.95
2022-09-04T00:54:32.845Z,24.85
2022-09-04T00:55:08.954Z,24.81
2022-09-04T00:55:50.689Z,24.78
2022-09-04T00:56:31.453Z,24.78
2022-09-04T00:57:21.088Z,24.81
2022-09-04T00:58:07.959Z,24.77
2022-09-04T00:58:47.099Z,24.80
2022-09-04T00:59:20.490Z,24.72
2022-09-04T01:00:04.797Z,24.75
2022-09-04T01:00:27.930Z,24.73
2022-09-04T01:00:50.442Z,24.73
2022-09-04T01:01:19.204Z,24.74
2022-09-04T01:01:42.336Z,24.69
2022-09-04T01:02:12.458Z,24.72
2022-09-04T01:02:54.314Z,24.72
2022-09-04T01:03:31.682Z,24.61
2022-09-04T01:04:17.489Z,24.72
2022-09-04T01:04:43.223Z,24.67
2022-09-04T01:05:25.670Z,24.49
2022-09-04T01:06:03.980Z,24.58
2022-09-04T01:06:35.551Z,24.69
2022-09-04T01:07:21.193Z,24.70
2022-09-04T01:07:56.818Z,24.75
2022-09-04T01:08:32.744Z,24.78
2022-09-04T01:09:11.008Z,24.71
2022-09-04T01:09:48.557Z,24.67
2022-09-04T01:10:24.257Z,24.63
2022-09-04T01:11:00.130Z,24.66
2022-09-04T01:11:33.902Z,24.42
2022-09-04T01:12:06.455Z,24.50
2022-09-04T01:12:37.729Z,24.55
2022-09-04T01:13:07.898Z,24.62
2022-09-04T01:13:38.558Z,24.57
2022-09-04T01:14:10.781Z,24.61
2022-09-04T01:14:41.920Z,24.61
2022-09-04T01:15:14.465Z,24.57
2022-09-04T01:15:44.982Z,24.64
2022-09-04T01:16:11.181Z,24.64
2022-09-04T01:16:37.623Z,24.66
2022-09-04T01:17:10.145Z,24.69
2022-09-04T01:17:37.153Z,24.70
2022-09-04T01:18:08.102Z,24.69
2022-09-04T01:18:38.152Z,24.69
2022-09-04T01:19:10.989Z,24.66
2022-09-04T01:19:49.738Z,24.66
2022-09-04T01:20:20.333Z,24.51
2022-09-04T01:21:06.363Z,24.53
2022-09-04T01:22:01.364Z,24.45
2022-09-04T01:22:40.470Z,24.57
2022-09-04T01:23:16.644Z,24.51
2022-09-04T01:23:56.304Z,24.40
2022-09-04T01:24:40.040Z,24.38
2022-09-04T01:25:08.541Z,24.51
2022-09-04T01:25:52.116Z,24.56
2022-09-04T01:26:23.319Z,24.58
2022-09-04T01:26:50.050Z,24.55
2022-09-04T01:27:22.648Z,24.52
2022-09-04T01:27:54.570Z,24.51
2022-09-04T01:28:27.084Z,24.52
2022-09-04T01:29:01.674Z,24.48
2022-09-04T01:29:33.019Z,24.44
2022-09-04T01:30:06.798Z,24.52
2022-09-04T01:30:35.117Z,24.52
2022-09-04T01:31:04.423Z,24.57
2022-09-04T01:31:36.541Z,24.53
2022-09-04T01:32:09.064Z,24.45
2022-09-04T01:32:43.791Z,24.47
2022-09-04T01:33:12.986Z,24.46
2022-09-04T01:33:46.111Z,24.44
2022-09-04T01:34:22.805Z,24.52
2022-09-04T01:34:53.861Z,24.43
2022-09-04T01:35:25.657Z,24.50
2022-09-04T01:35:55.810Z,24.35
2022-09-04T01:36:28.823Z,24.39
2022-09-04T01:36:59.778Z,24.42
2022-09-04T01:37:34.609Z,24.49
2022-09-04T01:38:03.092Z,24.48
2022-09-04T01:38:33.695Z,24.53
2022-09-04T01:38:58.653Z,24.56
2022-09-04T01:39:24.907Z,24.56
2022-09-04T01:39:57.230Z,24.59
2022-09-04T01:40:35.174Z,24.48
2022-09-04T01:41:07.256Z,24.59
2022-09-04T01:41:38.203Z,24.57
2022-09-04T01:42:05.322Z,24.55
2022-09-04T01:42:37.620Z,24.58
2022-09-04T01:43:05.774Z,24.56
2022-09-04T01:43:27.730Z,24.61
2022-09-04T01:43:50.829Z,24.61
2022-09-04T01:44:14.383Z,24.62
2022-09-04T01:44:36.908Z,24.62
2022-09-04T01:44:58.534Z,24.63
2022-09-04T01:45:33.388Z,24.65
2022-09-04T01:46:38.157Z,24.57
2022-09-04T01:47:11.154Z,24.55
2022-09-04T01:47:43.313Z,24.46
2022-09-04T01:48:10.371Z,24.38
2022-09-04T01:48:45.063Z,24.51
2022-09-04T01:49:16.381Z,24.49
2022-09-04T01:49:42.682Z,24.47
2022-09-04T01:50:11.048Z,24.48
2022-09-04T01:50:32.990Z,24.49
2022-09-04T01:51:01.872Z,24.33
2022-09-04T01:51:30.475Z,24.51
2022-09-04T01:52:03.139Z,24.49
2022-09-04T01:52:38.765Z,24.49
2022-09-04T01:53:07.794Z,24.51
2022-09-04T01:53:36.874Z,24.51
2022-09-04T01:54:12.684Z,24.39
2022-09-04T01:54:47.304Z,24.41
2022-09-04T01:55:20.111Z,24.46
2022-09-04T01:55:49.548Z,24.49
2022-09-04T01:56:20.841Z,24.52
2022-09-04T01:56:48.337Z,24.55
2022-09-04T01:57:19.760Z,24.52
2022-09-04T01:57:56.173Z,24.51
2022-09-04T01:58:29.541Z,24.50
2022-09-04T01:59:00.046Z,24.36
2022-09-04T01:59:28.523Z,24.37
2022-09-04T02:00:02.211Z,24.38
2022-09-04T02:00:30.109Z,24.45
2022-09-04T02:01:01.331Z,24.44
2022-09-04T02:01:35.560Z,24.38
2022-09-04T02:02:04.535Z,24.26
2022-09-04T02:02:30.969Z,24.32
2022-09-04T02:03:00.542Z,24.37
2022-09-04T02:03:27.465Z,24.41
2022-09-04T02:03:57.531Z,24.43
2022-09-04T02:04:26.555Z,24.42
2022-09-04T02:04:56.331Z,24.43
2022-09-04T02:05:26.321Z,24.46
2022-09-04T02:06:01.615Z,24.50
2022-09-04T02:06:33.002Z,24.46
2022-09-04T02:07:10.049Z,24.25
2022-09-04T02:07:36.162Z,24.26
2022-09-04T02:08:12.079Z,24.30
2022-09-04T02:08:49.734Z,24.37
2022-09-04T02:09:26.345Z,24.37
2022-09-04T02:09:58.638Z,24.32
2022-09-04T02:10:30.155Z,24.26
2022-09-04T02:11:00.126Z,24.14
2022-09-04T02:11:27.819Z,24.18
2022-09-04T02:12:01.406Z,24.24
2022-09-04T02:12:38.453Z,24.23
2022-09-04T02:13:15.213Z,24.25
2022-09-04T02:13:51.440Z,24.33
2022-09-04T02:14:35.565Z,24.33
2022-09-04T02:15:06.540Z,24.33
2022-09-04T02:15:37.555Z,24.29
2022-09-04T02:16:14.388Z,24.27
2022-09-04T02:16:45.727Z,24.20
2022-09-04T02:17:10.952Z,24.27
2022-09-04T02:17:41.680Z,24.30
2022-09-04T02:18:13.586Z,24.32
2022-09-04T02:18:50.287Z,24.32
2022-09-04T02:19:24.065Z,24.32
2022-09-04T02:20:03.608Z,24.37
2022-09-04T02:20:28.681Z,24.39
2022-09-04T02:20:57.538Z,24.43
2022-09-04T02:21:26.439Z,24.35
2022-09-04T02:21:56.036Z,24.34
2022-09-04T02:22:27.604Z,24.37
2022-09-04T02:22:59.032Z,24.39
2022-09-04T02:23:30.004Z,24.39
2022-09-04T02:24:05.698Z,24.35
2022-09-04T02:24:34.346Z,24.36
2022-09-04T02:25:05.634Z,24.37
2022-09-04T02:25:31.319Z,24.41
2022-09-04T02:26:08.512Z,24.37
2022-09-04T02:26:37.527Z,24.39
2022-09-04T02:27:09.201Z,24.33
2022-09-04T02:27:40.900Z,24.35
2022-09-04T02:28:18.061Z,24.37
2022-09-04T02:28:53.189Z,24.37
2022-09-04T02:29:26.085Z,24.34
2022-09-04T02:29:58.222Z,24.30
2022-09-04T02:30:21.077Z,24.30
2022-09-04T02:30:54.348Z,24.28
2022-09-04T02:31:25.788Z,24.35
2022-09-04T02:31:54.578Z,24.38
2022-09-04T02:32:20.585Z,24.38
2022-09-04T02:32:50.391Z,24.40
2022-09-04T02:33:19.109Z,24.31
2022-09-04T02:33:49.098Z,24.16
2022-09-04T02:34:19.874Z,24.14
2022-09-04T02:34:50.900Z,24.24
2022-09-04T02:35:20.318Z,24.30
2022-09-04T02:35:47.165Z,24.28
2022-09-04T02:36:18.528Z,24.32
2022-09-04T02:36:46.588Z,24.33
2022-09-04T02:37:21.478Z,24.27
2022-09-04T02:37:58.980Z,24.32
2022-09-04T02:38:32.410Z,24.32
2022-09-04T02:39:04.817Z,24.27
2022-09-04T02:39:44.736Z,24.21
2022-09-04T02:40:15.748Z,24.25
2022-09-04T02:40:46.747Z,24.27
2022-09-04T02:41:20.204Z,24.14
2022-09-04T02:41:51.056Z,24.15
2022-09-04T02:42:23.899Z,24.17
2022-09-04T02:42:59.432Z,24.19
2022-09-04T02:43:35.660Z,24.20
2022-09-04T02:44:10.424Z,24.19
2022-09-04T02:44:45.473Z,24.14
2022-09-04T02:45:19.443Z,24.18
2022-09-04T02:45:46.038Z,24.04
2022-09-04T02:46:16.771Z,24.23
2022-09-04T02:46:50.362Z,24.21
2022-09-04T02:47:23.153Z,24.18
2022-09-04T02:47:50.450Z,24.21
2022-09-04T02:48:18.429Z,24.23
2022-09-04T02:48:57.533Z,24.25
2022-09-04T02:49:29.236Z,24.16
2022-09-04T02:50:01.877Z,24.24
2022-09-04T02:50:40.305Z,24.24
2022-09-04T02:51:18.532Z,24.30
2022-09-04T02:51:54.589Z,24.31
2022-09-04T02:52:33.480Z,24.26
2022-09-04T02:53:08.229Z,24.25
2022-09-04T02:53:40.776Z,24.26
2022-09-04T02:54:11.064Z,24.21
2022-09-04T02:54:49.634Z,24.25
2022-09-04T02:55:20.772Z,24.24
2022-09-04T02:55:58.250Z,24.23
2022-09-04T02:56:31.273Z,24.22
2022-09-04T02:57:09.227Z,24.09
2022-09-04T02:57:44.607Z,24.06
2022-09-04T02:58:15.397Z,24.08
2022-09-04T02:58:49.849Z,24.02
2022-09-04T02:59:26.659Z,24.08
2022-09-04T02:59:59.030Z,23.96
2022-09-04T03:00:23.840Z,24.01
2022-09-04T03:00:55.116Z,24.03
2022-09-04T03:01:22.365Z,24.08
2022-09-04T03:01:51.964Z,24.06
2022-09-04T03:02:22.698Z,24.12
2022-09-04T03:02:53.104Z,24.15
2022-09-04T03:03:20.852Z,24.12
2022-09-04T03:03:48.047Z,24.10
2022-09-04T03:04:15.785Z,24.13
2022-09-04T03:04:49.970Z,24.13
2022-09-04T03:05:20.032Z,24.15
2022-09-04T03:05:50.180Z,24.08
2022-09-04T03:06:17.217Z,24.08
2022-09-04T03:06:50.500Z,24.02
2022-09-04T03:07:17.807Z,24.05
2022-09-04T03:07:48.925Z,24.08
2022-09-04T03:08:18.329Z,24.10
2022-09-04T03:08:47.034Z,24.04
2022-09-04T03:09:15.121Z,24.07
2022-09-04T03:09:41.620Z,24.00
2022-09-04T03:10:12.451Z,24.02
2022-09-04T03:10:41.564Z,23.96
2022-09-04T03:11:12.484Z,23.98
2022-09-04T03:11:40.954Z,23.93
2022-09-04T03:12:29.608Z,23.91
2022-09-04T03:12:56.316Z,23.98
2022-09-04T03:13:26.422Z,24.02
2022-09-04T03:13:52.843Z,24.02
2022-09-04T03:14:24.505Z,24.05
2022-09-04T03:14:54.082Z,24.09
2022-09-04T03:15:23.777Z,23.99
2022-09-04T03:15:51.790Z,24.01
2022-09-04T03:16:21.997Z,24.02
2022-09-04T03:16:48.299Z,24.03
2022-09-04T03:17:17.126Z,24.01
2022-09-04T03:17:48.333Z,24.06
2022-09-04T03:18:17.305Z,24.03
2022-09-04T03:18:59.123Z,24.01
2022-09-04T03:19:30.425Z,24.03
2022-09-04T03:19:57.090Z,24.05
2022-09-04T03:20:23.069Z,23.96
2022-09-04T03:20:52.297Z,24.07
2022-09-04T03:21:20.988Z,24.05
2022-09-04T03:21:48.934Z,24.12
2022-09-04T03:22:19.346Z,24.13
2022-09-04T03:22:48.852Z,24.11
2022-09-04T03:23:19.573Z,23.99
2022-09-04T03:23:49.647Z,23.98
2022-09-04T03:24:17.417Z,23.96
2022-09-04T03:24:59.956Z,23.98
2022-09-04T03:25:57.613Z,24.00
2022-09-04T03:26:23.446Z,24.02
2022-09-04T03:26:50.688Z,23.91
2022-09-04T03:27:16.799Z,23.94
2022-09-04T03:27:39.603Z,23.94
2022-09-04T03:28:02.031Z,23.93
2022-09-04T03:28:35.600Z,23.94
2022-09-04T03:29:10.034Z,23.95
2022-09-04T03:29:43.740Z,23.89
2022-09-04T03:30:08.140Z,23.66
2022-09-04T03:30:35.158Z,23.77
2022-09-04T03:31:01.292Z,23.82
2022-09-04T03:31:32.072Z,23.84
2022-09-04T03:32:15.647Z,23.88
2022-09-04T03:32:48.711Z,23.89
2022-09-04T03:33:19.112Z,23.86
2022-09-04T03:33:48.012Z,23.85
2022-09-04T03:34:33.468Z,23.86
2022-09-04T03:35:05.210Z,23.78
2022-09-04T03:35:35.500Z,23.87
2022-09-04T03:36:03.045Z,23.90
2022-09-04T03:36:36.188Z,23.90
2022-09-04T03:37:16.240Z,23.90
2022-09-04T03:37:58.826Z,23.77
2022-09-04T03:38:29.622Z,23.84
2022-09-04T03:39:02.681Z,23.87
2022-09-04T03:39:30.739Z,23.75
2022-09-04T03:40:08.849Z,23.87
2022-09-04T03:40:37.509Z,23.89
2022-09-04T03:41:13.158Z,23.88
2022-09-04T03:41:45.187Z,23.91
2022-09-04T03:42:19.888Z,23.90
2022-09-04T03:42:56.131Z,23.91
2022-09-04T03:43:51.330Z,23.95
2022-09-04T03:44:24.956Z,23.80
2022-09-04T03:45:02.601Z,23.84
2022-09-04T03:45:33.119Z,23.86
2022-09-04T03:46:04.008Z,23.72
2022-09-04T03:46:37.836Z,23.74
2022-09-04T03:47:11.423Z,23.73
2022-09-04T03:47:41.628Z,23.65
2022-09-04T03:48:21.335Z,23.57
2022-09-04T03:49:05.536Z,23.61
2022-09-04T03:49:42.739Z,23.50
2022-09-04T03:50:17.246Z,23.57
2022-09-04T03:50:48.744Z,23.57
2022-09-04T03:51:19.149Z,23.65
2022-09-04T03:51:55.580Z,23.64
2022-09-04T03:52:26.656Z,23.65
2022-09-04T03:52:57.988Z,23.60
2022-09-04T03:53:30.103Z,23.56
2022-09-04T03:54:02.221Z,23.63
2022-09-04T03:54:42.367Z,23.50
2022-09-04T03:55:28.972Z,23.55
2022-09-04T03:56:11.082Z,23.54
2022-09-04T03:56:46.879Z,23.59
2022-09-04T03:57:40.915Z,23.59
2022-09-04T03:58:14.578Z,23.65
2022-09-04T03:58:44.177Z,23.66
2022-09-04T03:59:09.216Z,23.66
2022-09-04T03:59:56.716Z,23.67
2022-09-04T04:00:20.688Z,23.71
2022-09-04T04:00:57.020Z,23.70
2022-09-04T04:01:29.454Z,23.65
2022-09-04T04:01:59.080Z,23.69
2022-09-04T04:02:30.246Z,23.72
2022-09-04T04:03:15.653Z,23.68
2022-09-04T04:03:56.214Z,23.71
2022-09-04T04:05:00.347Z,23.72
2022-09-04T04:05:48.832Z,23.72
2022-09-04T04:06:24.284Z,23.68
2022-09-04T04:06:52.841Z,23.59
2022-09-04T04:07:28.264Z,23.67
2022-09-04T04:08:05.492Z,23.70
2022-09-04T04:08:37.209Z,23.71
2022-09-04T04:09:20.089Z,23.56
2022-09-04T04:09:55.624Z,23.60
2022-09-04T04:10:31.165Z,23.55
2022-09-04T04:11:00.355Z,23.51
2022-09-04T04:11:43.721Z,23.60
2022-09-04T04:12:19.699Z,23.63
2022-09-04T04:13:15.201Z,23.65
2022-09-04T04:13:55.112Z,23.56
2022-09-04T04:14:38.197Z,23.47
2022-09-04T04:15:13.815Z,23.55
2022-09-04T04:15:48.102Z,23.56
2022-09-04T04:16:24.769Z,23.61
2022-09-04T04:17:00.111Z,23.57
2022-09-04T04:17:37.828Z,23.62
2022-09-04T04:18:31.935Z,23.59
2022-09-04T04:19:27.740Z,23.61
2022-09-04T04:20:06.926Z,23.59
2022-09-04T04:20:41.099Z,23.67
2022-09-04T04:21:14.589Z,23.59
2022-09-04T04:21:55.836Z,23.55
2022-09-04T04:22:34.133Z,23.58
2022-09-04T04:23:11.348Z,23.46
2022-09-04T04:24:21.941Z,23.40
2022-09-04T04:25:03.121Z,23.47
2022-09-04T04:25:48.802Z,23.49
2022-09-04T04:26:21.601Z,23.50
2022-09-04T04:26:59.296Z,23.49
2022-09-04T04:27:36.121Z,23.39
2022-09-04T04:28:19.816Z,23.36
2022-09-04T04:29:10.141Z,23.33
2022-09-04T04:29:51.988Z,23.32
2022-09-04T04:30:16.001Z,23.39
2022-09-04T04:30:49.347Z,23.40
2022-09-04T04:31:20.812Z,23.32
2022-09-04T04:32:11.696Z,23.30
2022-09-04T04:32:51.146Z,23.21
2022-09-04T04:33:32.429Z,23.23
2022-09-04T04:34:03.805Z,23.39
2022-09-04T04:34:35.165Z,23.38
2022-09-04T04:35:08.712Z,23.42
2022-09-04T04:35:39.537Z,23.44
2022-09-04T04:36:10.051Z,23.48
2022-09-04T04:36:37.813Z,23.48
2022-09-04T04:37:07.475Z,23.38
2022-09-04T04:37:44.373Z,23.38
2022-09-04T04:38:18.425Z,23.40
2022-09-04T04:38:53.691Z,23.35
2022-09-04T04:39:29.996Z,23.39
2022-09-04T04:39:58.764Z,23.40
2022-09-04T04:40:32.611Z,23.39
2022-09-04T04:41:05.332Z,23.21
2022-09-04T04:42:00.550Z,23.36
2022-09-04T04:42:29.979Z,23.40
2022-09-04T04:42:59.559Z,23.31
2022-09-04T04:43:31.243Z,23.38
2022-09-04T04:44:07.041Z,23.41
2022-09-04T04:45:00.935Z,23.42
2022-09-04T04:45:47.616Z,23.42
2022-09-04T04:46:19.275Z,23.44
2022-09-04T04:46:55.914Z,23.32
2022-09-04T04:47:34.999Z,23.43
2022-09-04T04:48:18.258Z,23.42
2022-09-04T04:49:00.016Z,23.47
2022-09-04T04:49:45.506Z,23.40
2022-09-04T04:50:16.172Z,23.45
2022-09-04T04:50:54.200Z,23.44
2022-09-04T04:51:31.754Z,23.44
2022-09-04T04:52:17.676Z,23.21
2022-09-04T04:52:49.317Z,23.21
2022-09-04T04:53:19.091Z,23.18
2022-09-04T04:53:50.520Z,23.27
2022-09-04T04:54:30.275Z,23.26
2022-09-04T04:55:06.201Z,23.28
2022-09-04T04:55:43.003Z,23.17
2022-09-04T04:56:14.087Z,23.13
2022-09-04T04:56:48.149Z,23.19
2022-09-04T04:57:23.120Z,23.17
2022-09-04T04:57:56.396Z,23.22
2022-09-04T04:58:32.345Z,23.18
2022-09-04T04:59:08.897Z,23.18
2022-09-04T04:59:38.085Z,23.18
2022-09-04T05:00:08.799Z,23.21
2022-09-04T05:00:40.110Z,23.25
2022-09-04T05:01:11.841Z,23.27
2022-09-04T05:01:44.465Z,23.25
2022-09-04T05:02:16.994Z,23.28
2022-09-04T05:02:49.142Z,23.24
2022-09-04T05:03:22.355Z,23.29
2022-09-04T05:03:59.460Z,23.32
2022-09-04T05:04:29.987Z,23.36
2022-09-04T05:05:02.245Z,23.34
2022-09-04T05:05:46.933Z,23.33
2022-09-04T05:06:14.792Z,23.35
2022-09-04T05:06:41.750Z,23.28
2022-09-04T05:07:11.869Z,23.14
2022-09-04T05:07:40.595Z,23.16
2022-09-04T05:08:09.779Z,23.22
2022-09-04T05:08:45.580Z,23.23
2022-09-04T05:09:15.217Z,23.25
2022-09-04T05:09:44.660Z,23.25
2022-09-04T05:10:14.462Z,23.20
2022-09-04T05:10:41.543Z,23.21
2022-09-04T05:11:10.621Z,23.29
2022-09-04T05:11:41.039Z,23.32
2022-09-04T05:12:09.245Z,23.32
2022-09-04T05:12:44.264Z,23.34
2022-09-04T05:13:17.755Z,23.35
2022-09-04T05:13:51.664Z,23.32
2022-09-04T05:14:31.739Z,23.37
2022-09-04T05:15:01.247Z,23.32
2022-09-04T05:15:32.793Z,23.35
2022-09-04T05:16:09.351Z,23.43
2022-09-04T05:16:42.901Z,23.41
2022-09-04T05:17:14.547Z,23.31
2022-09-04T05:17:47.040Z,23.28
2022-09-04T05:18:16.248Z,23.38
2022-09-04T05:18:45.282Z,23.27
2022-09-04T05:19:15.397Z,23.31
2022-09-04T05:19:46.504Z,23.27
2022-09-04T05:20:25.615Z,23.37
2022-09-04T05:20:54.131Z,23.25
2022-09-04T05:21:22.680Z,23.20
2022-09-04T05:21:52.145Z,23.27
2022-09-04T05:22:20.870Z,23.23
2022-09-04T05:22:47.541Z,23.21
2022-09-04T05:23:19.437Z,23.18
2022-09-04T05:23:54.544Z,23.27
2022-09-04T05:24:23.634Z,23.31
2022-09-04T05:24:56.158Z,23.24
2022-09-04T05:25:26.603Z,23.38
2022-09-04T05:25:54.454Z,23.14
2022-09-04T05:26:26.100Z,23.21
2022-09-04T05:26:56.509Z,23.28
2022-09-04T05:27:39.626Z,23.32
2022-09-04T05:28:10.652Z,23.34
2022-09-04T05:28:46.403Z,23.36
2022-09-04T05:29:17.314Z,23.40
2022-09-04T05:29:51.634Z,23.32
2022-09-04T05:30:18.296Z,23.37
2022-09-04T05:30:48.262Z,23.39
2022-09-04T05:31:19.982Z,23.43
2022-09-04T05:31:52.351Z,23.45
2022-09-04T05:32:21.839Z,23.41
2022-09-04T05:32:53.490Z,23.49
2022-09-04T05:33:26.051Z,23.50
2022-09-04T05:33:57.245Z,23.50
2022-09-04T05:34:26.592Z,23.41
2022-09-04T05:35:02.126Z,23.22
2022-09-04T05:35:37.086Z,23.34
2022-09-04T05:36:08.774Z,23.22
2022-09-04T05:36:44.972Z,23.13
2022-09-04T05:37:13.349Z,23.22
2022-09-04T05:37:41.709Z,23.21
2022-09-04T05:38:11.137Z,23.10
2022-09-04T05:38:40.803Z,23.05
2022-09-04T05:39:10.572Z,23.12
2022-09-04T05:39:41.452Z,23.17
2022-09-04T05:40:11.254Z,23.15
2022-09-04T05:40:47.883Z,23.19
2022-09-04T05:41:24.574Z,23.22
2022-09-04T05:42:09.633Z,23.32
2022-09-04T05:42:58.783Z,23.39
2022-09-04T05:43:33.495Z,23.45
2022-09-04T05:44:18.615Z,23.51
2022-09-04T05:44:54.598Z,23.46
2022-09-04T05:45:24.873Z,23.37
2022-09-04T05:46:00.063Z,23.33
2022-09-04T05:46:38.882Z,23.48
2022-09-04T05:47:09.902Z,23.48
2022-09-04T05:47:43.429Z,23.49
2022-09-04T05:48:16.461Z,23.45
2022-09-04T05:48:46.809Z,23.40
2022-09-04T05:49:18.285Z,23.39
2022-09-04T05:49:59.384Z,23.34
2022-09-04T05:50:32.937Z,23.37
2022-09-04T05:51:07.139Z,23.44
2022-09-04T05:51:54.523Z,23.47
2022-09-04T05:52:52.708Z,23.49
2022-09-04T05:53:41.238Z,23.26
2022-09-04T05:54:26.518Z,23.36
2022-09-04T05:55:16.130Z,23.34
2022-09-04T05:55:55.196Z,23.39
2022-09-04T05:56:39.947Z,23.23
2022-09-04T05:57:15.241Z,23.39
2022-09-04T05:57:51.959Z,23.43
2022-09-04T05:58:29.415Z,23.29
2022-09-04T05:59:12.483Z,23.43
2022-09-04T06:00:16.133Z,23.47
2022-09-04T06:00:50.809Z,23.54
2022-09-04T06:01:27.918Z,23.58
2022-09-04T06:02:33.183Z,23.58
2022-09-04T06:03:14.690Z,23.67
2022-09-04T06:04:02.504Z,23.61
2022-09-04T06:04:39.085Z,23.65
2022-09-04T06:05:13.389Z,23.61
2022-09-04T06:05:47.179Z,23.65
2022-09-04T06:06:19.126Z,23.65
2022-09-04T06:06:48.288Z,23.66
2022-09-04T06:07:17.761Z,23.71
2022-09-04T06:07:52.420Z,23.76
2022-09-04T06:08:29.917Z,23.81
2022-09-04T06:09:22.778Z,23.84
2022-09-04T06:09:58.474Z,23.80
2022-09-04T06:10:27.371Z,23.72
2022-09-04T06:11:02.108Z,23.74
2022-09-04T06:11:51.532Z,23.80
2022-09-04T06:12:36.151Z,23.52
2022-09-04T06:13:24.922Z,23.56
2022-09-04T06:14:07.084Z,23.57
2022-09-04T06:14:45.637Z,23.62
2022-09-04T06:15:16.243Z,23.66
2022-09-04T06:15:49.878Z,23.68
2022-09-04T06:16:28.067Z,23.70
2022-09-04T06:17:05.018Z,23.58
2022-09-04T06:17:37.440Z,23.72
2022-09-04T06:18:24.425Z,23.78
2022-09-04T06:19:01.579Z,23.78
2022-09-04T06:19:38.657Z,23.81
2022-09-04T06:20:34.536Z,23.81
2022-09-04T06:21:17.335Z,23.83
2022-09-04T06:21:54.571Z,23.90
2022-09-04T06:22:53.809Z,23.84
2022-09-04T06:23:37.187Z,23.81
2022-09-04T06:24:26.483Z,23.79
2022-09-04T06:25:05.554Z,23.82
2022-09-04T06:25:49.654Z,23.82
2022-09-04T06:26:48.510Z,23.78
2022-09-04T06:27:23.082Z,23.70
2022-09-04T06:28:03.217Z,23.74
2022-09-04T06:28:41.164Z,23.79
2022-09-04T06:29:17.630Z,23.77
2022-09-04T06:30:07.766Z,23.81
2022-09-04T06:30:38.392Z,23.85
2022-09-04T06:31:07.601Z,23.82
2022-09-04T06:32:04.235Z,23.82
2022-09-04T06:32:51.382Z,23.84
2022-09-04T06:33:49.849Z,23.91
2022-09-04T06:34:22.507Z,23.88
2022-09-04T06:35:09.483Z,23.94
2022-09-04T06:35:45.376Z,23.87
2022-09-04T06:36:25.925Z,23.86
2022-09-04T06:37:04.108Z,23.94
2022-09-04T06:37:38.277Z,23.93
2022-09-04T06:38:20.217Z,23.78
2022-09-04T06:38:59.991Z,23.92
2022-09-04T06:39:39.784Z,23.93
2022-09-04T06:40:17.794Z,23.82
2022-09-04T06:40:51.654Z,23.85
2022-09-04T06:41:32.888Z,23.89
2022-09-04T06:42:08.247Z,23.90
2022-09-04T06:42:47.810Z,23.91
2022-09-04T06:43:17.877Z,23.97
2022-09-04T06:43:48.810Z,23.93
2022-09-04T06:44:24.620Z,23.90
2022-09-04T06:44:58.131Z,23.90
2022-09-04T06:45:30.975Z,23.93
2022-09-04T06:46:03.563Z,23.96
2022-09-04T06:46:34.477Z,23.99
2022-09-04T06:47:10.969Z,24.01
2022-09-04T06:47:43.811Z,24.04
2022-09-04T06:48:16.839Z,24.07
2022-09-04T06:48:53.150Z,24.10
2022-09-04T06:49:21.303Z,24.13
2022-09-04T06:49:59.394Z,24.08
2022-09-04T06:50:30.972Z,24.17
2022-09-04T06:51:01.827Z,24.16
2022-09-04T06:51:37.641Z,24.12
2022-09-04T06:52:15.179Z,24.18
2022-09-04T06:52:49.278Z,24.16
2022-09-04T06:53:19.192Z,24.17
2022-09-04T06:53:56.767Z,24.23
2022-09-04T06:54:34.139Z,24.29
2022-09-04T06:55:00.455Z,24.21
2022-09-04T06:55:33.392Z,24.26
2022-09-04T06:56:11.348Z,24.14
2022-09-04T06:56:58.526Z,24.08
2022-09-04T06:57:46.636Z,24.14
2022-09-04T06:58:46.220Z,24.39
2022-09-04T06:59:38.785Z,24.42
2022-09-04T07:00:07.477Z,24.38
2022-09-04T07:00:39.034Z,24.43
2022-09-04T07:01:08.111Z,24.42
2022-09-04T07:01:40.503Z,24.46
2022-09-04T07:02:17.222Z,24.54
2022-09-04T07:03:09.404Z,24.55
2022-09-04T07:03:44.932Z,24.43
2022-09-04T07:04:21.072Z,24.49
2022-09-04T07:04:57.426Z,24.53
2022-09-04T07:05:24.802Z,24.50
2022-09-04T07:05:57.388Z,24.51
2022-09-04T07:06:24.773Z,24.52
2022-09-04T07:06:58.741Z,24.53
2022-09-04T07:07:28.401Z,24.58
2022-09-04T07:08:03.424Z,24.60
2022-09-04T07:08:38.856Z,24.65
2022-09-04T07:09:08.153Z,24.65
2022-09-04T07:09:36.414Z,24.69
2022-09-04T07:10:04.275Z,24.68
2022-09-04T07:10:33.248Z,24.72
2022-09-04T07:11:09.563Z,24.75
2022-09-04T07:11:51.188Z,24.72
2022-09-04T07:12:39.601Z,24.73
2022-09-04T07:13:23.427Z,24.62
2022-09-04T07:14:00.106Z,24.79
2022-09-04T07:14:36.073Z,24.85
2022-09-04T07:15:28.962Z,24.88
2022-09-04T07:16:09.564Z,24.94
2022-09-04T07:16:41.081Z,24.94
2022-09-04T07:17:11.233Z,24.81
2022-09-04T07:17:39.427Z,24.86
2022-09-04T07:18:09.561Z,24.90
2022-09-04T07:18:48.249Z,24.96
2022-09-04T07:19:43.353Z,24.98
2022-09-04T07:20:17.047Z,24.92
2022-09-04T07:20:52.708Z,24.90
2022-09-04T07:21:23.591Z,24.97
2022-09-04T07:21:58.852Z,25.00
2022-09-04T07:22:45.988Z,25.02
2022-09-04T07:23:33.931Z,25.05